Terminal Aerodrome Forecast
Issued by NWS

Home | Current Version | Previous Version | Graphics & Text | Print | Product List | Glossary On
Versions: 1 2 3 4 5 6 7 8 9 10 11 12 13 14 15 16
000
FTUS43 KGRB 211023 AAA
TAFAUW
TAF AMD
KAUW 211023Z 2110/2206 30009G16KT P6SM VCSH SCT015 BKN025
      TEMPO 2111/2113 BKN015
     FM211400 31010G17KT P6SM BKN035
     FM212200 27005KT P6SM FEW040=

USA.gov is the U.S. government's official web portal to all federal, state and local government web resources and services.